Main page
METAR-TAF:

METAR-TAF

Airports :

Damascus, Syria

Damascus International Airport

latitude: 33-25N, longitude: 036-31E, elevation: 608 m

Current weather observation

The report was made 21 minutes ago, at 07:00 UTC
Wind 6 kt from the Southwest
Temperature 19°C
Humidity 28%
Pressure 1016 hPa
Visibility 10 km or more
no clouds below 1500 m and no cumulonimbus

METAR: OSDI 230700Z 23006KT CAVOK 19/00 Q1016

Time: 10:21 (07:21 UTC)

Forecast

Forecast valid from 23 at 06 UTC to 24 at 12 UTC
Wind 10 kt from the South/Southwest
Visibility 10 km or more
Few clouds at a height of 3000 ft
Temporary
from 23 at 12 UTC to 23 at 18 UTC
Wind 15 kt from the West/Southwest
Visibility: 8000 m
Few clouds at a height of 3000 ft

TAF: OSDI 2306/2412 21010KT 9999 FEW030 TEMPO 2312/2318 24015KT 8000 FEW030

Weather observations and forecasts of more than 4000 airports (METAR and TAF reports).

The available stations are represented by yellow and red dots on the map.

Hover mouse over dot to see the name of the station.

Then click to see weather observations and forecasts.

To change the map : click on the green buttons with a black cross to zoom in, on the green button with a dash to zoom out, or on the green arrows for adjacent maps.


METAR-TAF: